createdAt,value
2022-10-14T00:00:12.879Z,11.60
2022-10-14T00:02:40.108Z,11.60
2022-10-14T00:05:08.923Z,11.60
2022-10-14T00:07:39.412Z,11.70
2022-10-14T00:10:07.224Z,11.70
2022-10-14T00:12:35.161Z,11.70
2022-10-14T00:15:02.492Z,11.70
2022-10-14T00:17:29.528Z,11.70
2022-10-14T00:19:56.646Z,11.70
2022-10-14T00:22:23.890Z,11.70
2022-10-14T00:24:50.951Z,11.80
2022-10-14T00:27:18.438Z,11.80
2022-10-14T00:29:45.582Z,11.80
2022-10-14T00:32:12.658Z,11.80
2022-10-14T00:34:39.714Z,11.80
2022-10-14T00:37:06.745Z,11.90
2022-10-14T00:39:33.955Z,11.90
2022-10-14T00:42:01.372Z,11.90
2022-10-14T00:44:28.409Z,11.90
2022-10-14T00:46:56.055Z,11.90
2022-10-14T00:49:31.996Z,12.30
2022-10-14T00:52:11.503Z,12.00
2022-10-14T00:54:42.689Z,12.00
2022-10-14T00:57:10.473Z,12.00
2022-10-14T00:59:38.497Z,12.00
2022-10-14T01:02:05.823Z,12.00
2022-10-14T01:04:34.631Z,12.00
2022-10-14T01:07:10.214Z,12.00
2022-10-14T01:09:46.152Z,12.00
2022-10-14T01:12:50.416Z,12.00
2022-10-14T01:15:32.852Z,12.00
2022-10-14T01:18:37.169Z,12.10
2022-10-14T01:21:04.364Z,12.10
2022-10-14T01:23:37.281Z,12.10
2022-10-14T01:26:26.328Z,12.10
2022-10-14T01:29:15.405Z,12.10
2022-10-14T01:31:48.122Z,12.20
2022-10-14T01:34:26.083Z,12.20
2022-10-14T01:37:03.271Z,12.10
2022-10-14T01:39:37.636Z,12.10
2022-10-14T01:42:11.767Z,12.20
2022-10-14T01:44:42.620Z,12.20
2022-10-14T01:47:12.558Z,12.30
2022-10-14T01:49:45.131Z,12.30
2022-10-14T01:52:23.220Z,12.30
2022-10-14T01:54:53.808Z,12.30
2022-10-14T01:57:26.322Z,12.30
2022-10-14T01:59:54.965Z,12.30
2022-10-14T02:02:24.037Z,12.40
2022-10-14T02:04:51.477Z,12.40
2022-10-14T02:07:32.514Z,12.40
2022-10-14T02:10:27.268Z,12.40
2022-10-14T02:13:18.756Z,12.40
2022-10-14T02:16:10.163Z,12.40
2022-10-14T02:18:43.396Z,12.40
2022-10-14T02:21:24.821Z,12.40
2022-10-14T02:24:00.467Z,12.40
2022-10-14T02:26:28.891Z,12.40
2022-10-14T02:28:58.347Z,12.40
2022-10-14T02:31:27.257Z,12.50
2022-10-14T02:33:58.933Z,12.50
2022-10-14T02:36:27.371Z,13.90
2022-10-14T02:38:58.434Z,12.50
2022-10-14T02:41:29.501Z,12.50
2022-10-14T02:43:56.633Z,12.50
2022-10-14T02:46:24.059Z,12.50
2022-10-14T02:48:51.435Z,12.40
2022-10-14T02:51:18.574Z,12.40
2022-10-14T02:53:45.640Z,12.50
2022-10-14T02:56:14.396Z,12.50
2022-10-14T02:58:41.436Z,12.50
2022-10-14T03:01:08.520Z,12.50
2022-10-14T03:03:35.773Z,12.50
2022-10-14T03:06:02.879Z,11.80
2022-10-14T03:08:30.968Z,12.50
2022-10-14T03:10:58.047Z,12.50
2022-10-14T03:13:25.124Z,12.50
2022-10-14T03:15:52.324Z,12.60
2022-10-14T03:18:19.568Z,12.60
2022-10-14T03:20:46.958Z,12.60
2022-10-14T03:23:15.041Z,12.60
2022-10-14T03:25:45.230Z,12.60
2022-10-14T03:28:13.201Z,12.60
2022-10-14T03:30:40.351Z,12.60
2022-10-14T03:33:08.391Z,12.60
2022-10-14T03:35:35.884Z,12.60
2022-10-14T03:38:04.028Z,12.60
2022-10-14T03:40:31.447Z,12.60
2022-10-14T03:43:01.684Z,12.60
2022-10-14T03:45:28.812Z,12.60
2022-10-14T03:47:56.522Z,12.60
2022-10-14T03:50:23.558Z,12.60
2022-10-14T03:52:54.691Z,12.60
2022-10-14T03:55:22.927Z,12.60
2022-10-14T03:57:50.038Z,12.60
2022-10-14T04:00:17.684Z,12.60
2022-10-14T04:02:45.162Z,12.60
2022-10-14T04:05:12.242Z,12.60
2022-10-14T04:07:39.283Z,12.60
2022-10-14T04:10:07.339Z,12.60
2022-10-14T04:12:34.557Z,12.60
2022-10-14T04:15:01.586Z,12.60
2022-10-14T04:17:28.649Z,12.60
2022-10-14T04:19:55.770Z,12.60
2022-10-14T04:22:23.541Z,12.60
2022-10-14T04:24:51.420Z,12.70
2022-10-14T04:27:18.585Z,12.70
2022-10-14T04:29:45.669Z,12.70
2022-10-14T04:32:12.791Z,12.70
2022-10-14T04:34:39.796Z,12.80
2022-10-14T04:37:06.883Z,12.80
2022-10-14T04:39:34.556Z,12.80
2022-10-14T04:42:01.708Z,12.80
2022-10-14T04:44:28.751Z,12.80
2022-10-14T04:46:56.017Z,12.70
2022-10-14T04:49:23.522Z,12.70
2022-10-14T04:51:50.672Z,12.70
2022-10-14T04:54:17.750Z,12.60
2022-10-14T04:56:44.997Z,12.60
2022-10-14T04:59:13.853Z,12.60
2022-10-14T05:01:41.140Z,12.60
2022-10-14T05:04:08.410Z,12.60
2022-10-14T05:06:35.480Z,12.60
2022-10-14T05:09:02.556Z,12.60
2022-10-14T05:11:29.648Z,12.60
2022-10-14T05:13:56.868Z,12.60
2022-10-14T05:16:24.165Z,12.60
2022-10-14T05:18:51.986Z,12.50
2022-10-14T05:21:19.035Z,12.50
2022-10-14T05:23:46.141Z,12.50
2022-10-14T05:26:13.353Z,12.40
2022-10-14T05:28:40.714Z,12.50
2022-10-14T05:31:07.822Z,11.00
2022-10-14T05:33:34.885Z,12.50
2022-10-14T05:36:02.153Z,12.50
2022-10-14T05:38:32.975Z,12.60
2022-10-14T05:41:00.103Z,12.60
2022-10-14T05:43:32.104Z,12.60
2022-10-14T05:46:00.265Z,12.60
2022-10-14T05:48:27.687Z,12.60
2022-10-14T05:50:54.982Z,12.50
2022-10-14T05:53:22.325Z,12.50
2022-10-14T05:55:49.393Z,12.50
2022-10-14T05:58:16.459Z,12.50
2022-10-14T06:00:43.522Z,12.50
2022-10-14T06:03:13.292Z,12.50
2022-10-14T06:05:40.589Z,12.50
2022-10-14T06:08:07.687Z,12.50
2022-10-14T06:10:35.662Z,12.50
2022-10-14T06:13:03.082Z,12.50
2022-10-14T06:15:30.145Z,12.50
2022-10-14T06:17:57.379Z,12.50
2022-10-14T06:20:24.454Z,12.50
2022-10-14T06:22:51.578Z,12.50
2022-10-14T06:25:18.697Z,12.50
2022-10-14T06:27:45.738Z,12.50
2022-10-14T06:30:13.345Z,12.50
2022-10-14T06:32:40.444Z,12.40
2022-10-14T06:35:08.168Z,12.40
2022-10-14T06:37:35.246Z,12.50
2022-10-14T06:40:02.322Z,12.40
2022-10-14T06:42:29.566Z,12.40
2022-10-14T06:44:56.628Z,12.50
2022-10-14T06:47:23.668Z,12.50
2022-10-14T06:49:50.874Z,12.50
2022-10-14T06:52:18.161Z,12.50
2022-10-14T06:54:48.311Z,12.50
2022-10-14T06:57:16.251Z,12.50
2022-10-14T06:59:43.487Z,12.40
2022-10-14T07:02:11.096Z,12.40
2022-10-14T07:04:39.755Z,12.40
2022-10-14T07:07:10.105Z,12.40
2022-10-14T07:09:37.671Z,12.50
2022-10-14T07:12:04.816Z,12.50
2022-10-14T07:14:31.843Z,12.50
2022-10-14T07:16:59.120Z,12.60
2022-10-14T07:19:26.354Z,12.60
2022-10-14T07:21:53.439Z,12.60
2022-10-14T07:24:20.692Z,12.60
2022-10-14T07:26:47.862Z,12.70
2022-10-14T07:29:14.916Z,12.70
2022-10-14T07:31:42.271Z,12.70
2022-10-14T07:34:09.609Z,12.70
2022-10-14T07:36:36.858Z,12.70
2022-10-14T07:39:06.047Z,12.80
2022-10-14T07:41:33.765Z,12.80
2022-10-14T07:44:05.678Z,12.80
2022-10-14T07:46:35.482Z,12.90
2022-10-14T07:49:07.036Z,12.90
2022-10-14T07:51:34.527Z,12.90
2022-10-14T07:54:03.617Z,13.00
2022-10-14T07:56:31.010Z,13.00
2022-10-14T07:58:59.534Z,13.00
2022-10-14T08:01:26.699Z,13.10
2022-10-14T08:03:53.973Z,13.20
2022-10-14T08:06:21.627Z,13.20
2022-10-14T08:08:49.382Z,13.20
2022-10-14T08:11:19.728Z,13.30
2022-10-14T08:13:47.121Z,13.30
2022-10-14T08:16:20.788Z,13.30
2022-10-14T08:18:48.470Z,13.40
2022-10-14T08:21:16.307Z,13.40
2022-10-14T08:23:43.850Z,13.40
2022-10-14T08:26:35.926Z,13.40
2022-10-14T08:29:10.661Z,13.40
2022-10-14T08:31:37.963Z,13.50
2022-10-14T08:34:05.111Z,13.50
2022-10-14T08:36:32.433Z,13.40
2022-10-14T08:38:59.827Z,13.40
2022-10-14T08:41:37.870Z,13.50
2022-10-14T08:44:26.477Z,13.50
2022-10-14T08:46:57.580Z,13.50
2022-10-14T08:49:46.587Z,13.70
2022-10-14T08:52:27.944Z,13.70
2022-10-14T08:55:05.132Z,13.60
2022-10-14T08:57:40.782Z,13.60
2022-10-14T09:00:11.691Z,13.50
2022-10-14T09:02:48.551Z,13.40
2022-10-14T09:05:21.679Z,13.40
2022-10-14T09:10:40.353Z,13.60
2022-10-14T09:13:19.026Z,13.70
2022-10-14T09:15:50.711Z,13.80
2022-10-14T09:18:36.999Z,13.80
2022-10-14T09:21:27.752Z,13.90
2022-10-14T09:24:18.453Z,13.90
2022-10-14T09:29:38.368Z,13.70
2022-10-14T09:32:10.244Z,13.60
2022-10-14T09:34:41.098Z,13.60
2022-10-14T09:37:39.851Z,13.70
2022-10-14T09:40:17.179Z,13.80
2022-10-14T09:43:05.000Z,14.00
2022-10-14T09:45:48.877Z,14.10
2022-10-14T09:48:32.595Z,14.10
2022-10-14T09:51:02.703Z,14.20
2022-10-14T09:53:42.499Z,14.40
2022-10-14T09:56:10.882Z,14.40
2022-10-14T09:58:53.982Z,14.40
2022-10-14T10:01:27.661Z,14.40
2022-10-14T10:03:56.466Z,14.40
2022-10-14T10:06:26.746Z,14.40
2022-10-14T10:08:53.729Z,14.40
2022-10-14T10:11:38.074Z,14.40
2022-10-14T10:14:26.568Z,14.50
2022-10-14T10:17:19.172Z,14.50
2022-10-14T10:19:52.923Z,14.60
2022-10-14T10:24:47.616Z,14.50
2022-10-14T10:27:29.362Z,14.50
2022-10-14T10:29:56.449Z,14.50
2022-10-14T10:32:43.574Z,14.60
2022-10-14T10:35:33.828Z,14.70
2022-10-14T10:38:20.936Z,14.70
2022-10-14T10:41:18.900Z,14.70
2022-10-14T10:44:26.449Z,14.80
2022-10-14T10:47:11.575Z,14.80
2022-10-14T10:52:56.634Z,14.80
2022-10-14T10:55:44.830Z,14.70
2022-10-14T10:58:50.415Z,14.60
2022-10-14T11:01:32.793Z,14.50
2022-10-14T11:04:48.033Z,14.50
2022-10-14T11:07:33.594Z,14.50
2022-10-14T11:11:02.119Z,14.70
2022-10-14T11:13:48.884Z,14.80
2022-10-14T11:16:45.652Z,14.90
2022-10-14T11:19:21.621Z,15.00
2022-10-14T11:22:14.440Z,15.10
2022-10-14T11:25:26.728Z,15.00
2022-10-14T11:28:14.627Z,14.90
2022-10-14T11:31:24.474Z,14.80
2022-10-14T11:33:54.387Z,14.70
2022-10-14T11:36:45.352Z,14.80
2022-10-14T11:39:24.242Z,14.80
2022-10-14T11:41:57.632Z,14.80
2022-10-14T11:47:25.540Z,14.60
2022-10-14T11:50:02.324Z,14.60
2022-10-14T11:52:38.137Z,14.70
2022-10-14T11:55:16.724Z,14.80
2022-10-14T11:58:05.249Z,14.90
2022-10-14T12:00:36.422Z,14.80
2022-10-14T12:03:31.473Z,14.80
2022-10-14T12:06:12.950Z,14.70
2022-10-14T12:09:02.793Z,14.80
2022-10-14T12:11:52.874Z,14.90
2022-10-14T12:14:30.789Z,14.80
2022-10-14T12:17:00.240Z,14.70
2022-10-14T12:19:29.842Z,14.70
2022-10-14T12:22:02.708Z,14.80
2022-10-14T12:24:36.267Z,14.90
2022-10-14T12:27:05.703Z,14.90
2022-10-14T12:29:47.619Z,14.90
2022-10-14T12:32:22.436Z,14.90
2022-10-14T12:34:54.963Z,14.70
2022-10-14T12:37:28.813Z,14.60
2022-10-14T12:40:06.949Z,14.60
2022-10-14T12:42:38.957Z,14.60
2022-10-14T12:45:19.640Z,14.50
2022-10-14T12:47:46.775Z,14.40
2022-10-14T12:50:17.738Z,14.40
2022-10-14T12:52:48.402Z,14.40
2022-10-14T12:55:23.921Z,14.40
2022-10-14T12:58:02.867Z,14.40
2022-10-14T13:00:37.806Z,14.50
2022-10-14T13:03:16.051Z,14.50
2022-10-14T13:05:45.194Z,14.60
2022-10-14T13:08:21.454Z,14.60
2022-10-14T13:11:02.555Z,14.60
2022-10-14T13:13:54.131Z,14.60
2022-10-14T13:16:23.957Z,14.70
2022-10-14T13:18:58.263Z,14.70
2022-10-14T13:21:31.340Z,14.70
2022-10-14T13:24:21.309Z,14.70
2022-10-14T13:26:58.797Z,14.70
2022-10-14T13:29:35.395Z,14.70
2022-10-14T13:32:30.787Z,14.80
2022-10-14T13:35:11.087Z,14.80
2022-10-14T13:37:46.467Z,14.00
2022-10-14T13:40:21.941Z,14.90
2022-10-14T13:42:57.034Z,15.00
2022-10-14T13:45:32.615Z,15.00
2022-10-14T13:48:00.872Z,15.00
2022-10-14T13:50:34.083Z,14.90
2022-10-14T13:53:10.380Z,14.90
2022-10-14T13:55:54.454Z,15.00
2022-10-14T13:58:24.027Z,15.00
2022-10-14T14:00:59.872Z,15.00
2022-10-14T14:03:37.931Z,15.00
2022-10-14T14:06:13.067Z,15.00
2022-10-14T14:09:05.558Z,15.10
2022-10-14T14:11:36.807Z,15.10
2022-10-14T14:14:14.351Z,15.10
2022-10-14T14:17:01.837Z,15.10
2022-10-14T14:19:34.233Z,15.10
2022-10-14T14:22:16.349Z,15.10
2022-10-14T14:24:44.272Z,15.00
2022-10-14T14:27:17.065Z,15.00
2022-10-14T14:29:46.227Z,15.00
2022-10-14T14:32:16.907Z,15.00
2022-10-14T14:34:46.920Z,15.00
2022-10-14T14:40:23.629Z,14.90
2022-10-14T14:43:00.479Z,14.70
2022-10-14T14:45:44.972Z,14.60
2022-10-14T14:48:14.473Z,14.60
2022-10-14T14:50:44.876Z,14.50
2022-10-14T14:53:18.616Z,14.50
2022-10-14T14:55:45.616Z,14.40
2022-10-14T14:58:45.040Z,14.30
2022-10-14T15:01:29.114Z,14.30
2022-10-14T15:04:13.308Z,14.20
2022-10-14T15:06:51.612Z,14.30
2022-10-14T15:09:34.164Z,14.00
2022-10-14T15:12:08.107Z,14.00
2022-10-14T15:14:58.521Z,14.00
2022-10-14T15:17:33.336Z,13.90
2022-10-14T15:20:29.858Z,13.90
2022-10-14T15:22:57.216Z,13.90
2022-10-14T15:25:31.836Z,13.90
2022-10-14T15:28:02.344Z,13.80
2022-10-14T15:30:44.221Z,13.70
2022-10-14T15:33:16.756Z,13.70
2022-10-14T15:35:46.262Z,13.60
2022-10-14T15:38:16.672Z,13.50
2022-10-14T15:40:45.347Z,13.50
2022-10-14T15:43:17.672Z,14.90
2022-10-14T15:45:47.503Z,13.40
2022-10-14T15:48:20.616Z,13.30
2022-10-14T15:50:48.592Z,13.30
2022-10-14T15:53:17.623Z,13.20
2022-10-14T15:55:45.017Z,13.10
2022-10-14T15:58:12.152Z,13.00
2022-10-14T16:00:39.618Z,13.00
2022-10-14T16:03:08.018Z,12.80
2022-10-14T16:05:36.838Z,12.80
2022-10-14T16:08:06.219Z,12.70
2022-10-14T16:10:34.420Z,12.70
2022-10-14T16:13:01.812Z,12.60
2022-10-14T16:15:50.407Z,12.50
2022-10-14T16:18:18.537Z,12.50
2022-10-14T16:20:46.172Z,12.40
2022-10-14T16:23:21.084Z,12.40
2022-10-14T16:25:49.785Z,12.40
2022-10-14T16:28:18.335Z,12.40
2022-10-14T16:30:51.121Z,12.40
2022-10-14T16:33:22.236Z,12.40
2022-10-14T16:35:55.517Z,12.40
2022-10-14T16:38:24.350Z,12.30
2022-10-14T16:41:00.153Z,12.40
2022-10-14T16:43:28.504Z,12.40
2022-10-14T16:46:02.589Z,12.40
2022-10-14T16:48:30.928Z,12.40
2022-10-14T16:50:58.172Z,12.50
2022-10-14T16:53:41.079Z,12.50
2022-10-14T16:56:32.258Z,12.40
2022-10-14T16:59:00.794Z,12.40
2022-10-14T17:01:28.695Z,12.40
2022-10-14T17:03:56.882Z,12.40
2022-10-14T17:06:27.722Z,12.30
2022-10-14T17:08:55.128Z,12.40
2022-10-14T17:11:22.453Z,12.40
2022-10-14T17:13:54.379Z,12.30
2022-10-14T17:16:21.595Z,12.30
2022-10-14T17:21:21.721Z,12.20
2022-10-14T17:23:49.501Z,12.20
2022-10-14T17:26:19.612Z,12.10
2022-10-14T17:28:47.936Z,12.10
2022-10-14T17:31:21.719Z,12.10
2022-10-14T17:33:49.250Z,12.10
2022-10-14T17:36:27.723Z,12.10
2022-10-14T17:38:56.190Z,12.00
2022-10-14T17:41:25.479Z,12.00
2022-10-14T17:43:54.258Z,12.00
2022-10-14T17:46:23.962Z,12.00
2022-10-14T17:48:53.489Z,12.00
2022-10-14T17:51:24.628Z,11.90
2022-10-14T17:53:57.568Z,11.90
2022-10-14T17:56:26.151Z,11.90
2022-10-14T17:58:58.577Z,11.80
2022-10-14T18:01:37.291Z,11.80
2022-10-14T18:04:11.258Z,11.70
2022-10-14T18:06:38.589Z,11.70
2022-10-14T18:09:08.380Z,11.60
2022-10-14T18:12:07.161Z,11.50
2022-10-14T18:14:28.211Z,11.50
2022-10-14T18:16:55.573Z,11.40
2022-10-14T18:19:22.749Z,11.30
2022-10-14T18:21:51.670Z,11.30
2022-10-14T18:24:18.752Z,11.30
2022-10-14T18:26:45.784Z,11.30
2022-10-14T18:29:13.041Z,11.20
2022-10-14T18:31:40.139Z,11.20
2022-10-14T18:34:14.412Z,11.20
2022-10-14T18:36:41.577Z,11.20
2022-10-14T18:39:11.348Z,11.20
2022-10-14T18:41:38.620Z,11.10
2022-10-14T18:44:06.929Z,11.10
2022-10-14T18:46:36.692Z,11.10
2022-10-14T18:49:05.759Z,11.10
2022-10-14T18:51:35.517Z,11.20
2022-10-14T18:54:18.684Z,11.20
2022-10-14T18:56:46.658Z,11.20
2022-10-14T18:59:18.105Z,11.20
2022-10-14T19:01:46.114Z,11.20
2022-10-14T19:04:14.991Z,11.10
2022-10-14T19:06:45.213Z,11.10
2022-10-14T19:09:12.846Z,11.10
2022-10-14T19:11:40.371Z,11.10
2022-10-14T19:14:08.148Z,11.10
2022-10-14T19:16:36.889Z,11.20
2022-10-14T19:19:18.688Z,11.20
2022-10-14T19:21:48.884Z,11.30
2022-10-14T19:24:16.509Z,11.30
2022-10-14T19:26:45.844Z,11.30
2022-10-14T19:29:15.506Z,11.30
2022-10-14T19:31:44.270Z,11.40
2022-10-14T19:34:14.488Z,11.30
2022-10-14T19:36:42.897Z,11.30
2022-10-14T19:39:13.511Z,11.30
2022-10-14T19:41:44.675Z,11.20
2022-10-14T19:44:12.978Z,11.20
2022-10-14T19:46:40.971Z,11.10
2022-10-14T19:49:08.318Z,11.10
2022-10-14T19:51:35.462Z,11.10
2022-10-14T19:54:03.443Z,11.00
2022-10-14T19:56:31.294Z,11.00
2022-10-14T19:58:59.523Z,11.00
2022-10-14T20:01:29.218Z,10.90
2022-10-14T20:03:56.922Z,10.90
2022-10-14T20:06:24.431Z,10.90
2022-10-14T20:08:51.665Z,10.80
2022-10-14T20:11:23.555Z,10.80
2022-10-14T20:13:51.298Z,10.80
2022-10-14T20:16:18.542Z,10.70
2022-10-14T20:18:45.827Z,10.70
2022-10-14T20:21:16.273Z,10.70
2022-10-14T20:23:44.875Z,10.70
2022-10-14T20:26:15.184Z,10.60
2022-10-14T20:28:42.783Z,10.60
2022-10-14T20:31:15.807Z,10.60
2022-10-14T20:33:42.906Z,10.50
2022-10-14T20:36:15.227Z,10.50
2022-10-14T20:38:43.541Z,10.50
2022-10-14T20:41:25.674Z,10.50
2022-10-14T20:43:54.432Z,10.50
2022-10-14T20:46:22.869Z,10.50
2022-10-14T20:48:54.931Z,10.50
2022-10-14T20:51:22.966Z,10.50
2022-10-14T20:53:50.302Z,10.50
2022-10-14T20:56:17.419Z,10.50
2022-10-14T20:58:44.475Z,10.50
2022-10-14T21:01:14.238Z,10.50
2022-10-14T21:03:43.109Z,10.50
2022-10-14T21:06:13.230Z,10.50
2022-10-14T21:08:40.692Z,10.60
2022-10-14T21:11:13.750Z,10.60
2022-10-14T21:13:48.359Z,10.60
2022-10-14T21:16:36.299Z,10.60
2022-10-14T21:19:09.093Z,10.70
2022-10-14T21:21:38.803Z,10.80
2022-10-14T21:24:06.646Z,10.80
2022-10-14T21:26:33.854Z,12.60
2022-10-14T21:29:02.808Z,10.80
2022-10-14T21:31:30.041Z,10.80
2022-10-14T21:34:05.064Z,10.80
2022-10-14T21:36:32.791Z,10.90
2022-10-14T21:39:01.592Z,10.90
2022-10-14T21:41:28.704Z,10.90
2022-10-14T21:43:58.815Z,11.00
2022-10-14T21:46:27.244Z,11.00
2022-10-14T21:49:00.238Z,11.00
2022-10-14T21:51:29.215Z,11.10
2022-10-14T21:53:56.799Z,11.20
2022-10-14T21:56:26.055Z,11.20
2022-10-14T21:58:53.772Z,11.30
2022-10-14T22:01:29.848Z,11.30
2022-10-14T22:04:00.173Z,11.30
2022-10-14T22:06:28.570Z,11.30
2022-10-14T22:08:58.051Z,11.40
2022-10-14T22:11:34.178Z,11.40
2022-10-14T22:14:03.647Z,11.40
2022-10-14T22:16:31.220Z,11.40
2022-10-14T22:19:00.238Z,11.40
2022-10-14T22:21:28.938Z,11.40
2022-10-14T22:23:56.166Z,11.30
2022-10-14T22:26:25.148Z,11.30
2022-10-14T22:29:17.896Z,11.30
2022-10-14T22:31:46.103Z,11.30
2022-10-14T22:34:15.421Z,11.30
2022-10-14T22:36:43.811Z,11.40
2022-10-14T22:39:14.521Z,11.40
2022-10-14T22:41:42.150Z,11.40
2022-10-14T22:44:10.309Z,11.40
2022-10-14T22:46:39.052Z,11.40
2022-10-14T22:49:06.281Z,11.40
2022-10-14T22:51:36.415Z,11.50
2022-10-14T22:54:04.024Z,11.50
2022-10-14T22:56:32.297Z,11.50
2022-10-14T22:59:11.449Z,11.60
2022-10-14T23:01:40.275Z,11.60
2022-10-14T23:04:08.353Z,11.60
2022-10-14T23:06:35.893Z,11.60
2022-10-14T23:09:03.925Z,11.60
2022-10-14T23:11:32.085Z,11.60
2022-10-14T23:14:01.618Z,11.60
2022-10-14T23:16:31.836Z,11.60
2022-10-14T23:18:59.469Z,11.60
2022-10-14T23:21:29.506Z,11.70
2022-10-14T23:23:58.958Z,11.70
2022-10-14T23:26:31.767Z,11.70
2022-10-14T23:29:00.388Z,11.80
2022-10-14T23:31:30.443Z,11.80
2022-10-14T23:34:03.208Z,11.80
2022-10-14T23:36:30.256Z,11.80
2022-10-14T23:38:58.152Z,11.80
2022-10-14T23:41:25.916Z,11.80
2022-10-14T23:43:53.186Z,11.80
2022-10-14T23:46:21.072Z,11.80
2022-10-14T23:48:55.853Z,11.90
2022-10-14T23:51:38.461Z,11.90
2022-10-14T23:54:05.842Z,11.90
2022-10-14T23:56:32.960Z,12.00
2022-10-14T23:59:01.207Z,12.00
